Time;durP1;ratioP1;P1;durP2;ratioP2;P2;SDS_P1;SDS_P2;PMS_P1;PMS_P2;Temp;Humidity;BMP_temperature;BMP_pressure;BME280_temperature;BME280_humidity;BME280_pressure;Samples;Min_cycle;Max_cycle;Signal;HPM_P1;HPM_P2
2021/06/15 00:06:13;;;;;;;10.98;7.18;;;;;;;10.60;67.10;99841.78;515948;1089;116796;-59
2021/06/15 00:16:19;;;;;;;7.20;6.07;;;;;;;10.49;67.75;99852.09;529640;1089;116969;-57
2021/06/15 00:26:26;;;;;;;13.23;8.07;;;;;;;10.35;67.71;99850.23;530689;1087;116717;-57
2021/06/15 00:36:33;;;;;;;9.80;5.78;;;;;;;10.28;68.01;99839.27;521036;1087;117405;-58
2021/06/15 00:46:40;;;;;;;13.80;7.37;;;;;;;10.19;67.98;99824.91;532576;1087;116558;-58
2021/06/15 00:56:46;;;;;;;12.43;7.30;;;;;;;10.09;68.47;99811.47;531833;1087;117626;-57
2021/06/15 01:07:04;;;;;;;9.33;6.45;;;;;;;10.04;68.32;99810.05;528022;1088;116497;-57
2021/06/15 01:17:18;;;;;;;11.18;6.35;;;;;;;9.94;68.52;99797.48;532485;1088;117143;-58
2021/06/15 01:27:43;;;;;;;8.77;7.60;;;;;;;9.90;69.01;99803.00;531837;1089;116687;-58
2021/06/15 01:37:58;;;;;;;10.70;7.00;;;;;;;9.80;69.19;99806.14;532597;1089;117076;-58
2021/06/15 01:48:13;;;;;;;13.60;7.00;;;;;;;9.78;69.55;99787.04;515207;1087;116732;-58
2021/06/15 01:58:22;;;;;;;12.80;7.20;;;;;;;9.66;69.30;99787.75;524212;1087;115981;-57
2021/06/15 02:08:28;;;;;;;;;;;;;;;9.65;69.66;99799.17;519595;1087;116668;-58
2021/06/15 02:18:36;;;;;;;9.93;6.70;;;;;;;9.64;69.40;99803.55;522121;1087;103505;-58
2021/06/15 02:28:43;;;;;;;10.30;5.87;;;;;;;9.64;69.52;99787.83;532516;1087;116673;-58
2021/06/15 02:38:55;;;;;;;10.60;6.48;;;;;;;9.84;69.30;99792.85;531874;1087;116718;-58
2021/06/15 02:49:06;;;;;;;10.07;6.40;;;;;;;10.44;69.00;99794.60;532557;1087;118053;-59
2021/06/15 02:59:13;;;;;;;13.70;6.63;;;;;;;13.37;66.78;99809.70;532577;1087;116657;-59
2021/06/15 03:09:21;;;;;;;10.67;5.70;;;;;;;15.11;63.74;99812.55;525240;1087;116385;-58
2021/06/15 03:19:35;;;;;;;9.93;6.53;;;;;;;16.11;60.21;99797.45;530593;1087;117677;-58
2021/06/15 03:29:43;;;;;;;9.57;6.20;;;;;;;18.10;56.09;99801.37;519095;1087;116639;-58
2021/06/15 03:39:50;;;;;;;13.30;6.83;;;;;;;17.09;55.60;99810.36;521162;1087;116483;-58
2021/06/15 03:49:58;;;;;;;10.23;6.57;;;;;;;16.90;56.01;99808.42;532577;1087;117738;-58
2021/06/15 04:00:06;;;;;;;12.60;8.13;;;;;;;25.45;49.06;99817.50;531818;1088;116927;-59
2021/06/15 04:10:16;;;;;;;11.07;6.97;;;;;;;29.25;41.07;99803.04;532562;1087;116793;-59
2021/06/15 04:20:26;;;;;;;10.87;6.63;;;;;;;32.04;35.92;99805.00;527756;1088;116475;-59
2021/06/15 04:30:35;;;;;;;10.87;8.23;;;;;;;35.35;31.83;99800.69;531844;1089;116570;-58
2021/06/15 04:40:44;;;;;;;11.30;7.15;;;;;;;40.17;26.95;99799.70;532512;1089;117711;-58
2021/06/15 04:50:51;;;;;;;9.70;6.58;;;;;;;39.49;23.94;99807.76;531812;1086;178064;-58
2021/06/15 05:00:59;;;;;;;7.83;7.13;;;;;;;41.81;22.38;99802.41;532429;1086;116202;-59
2021/06/15 05:11:07;;;;;;;7.53;6.33;;;;;;;44.81;18.91;99815.74;527983;1087;117843;-59
2021/06/15 05:21:19;;;;;;;8.73;5.40;;;;;;;47.57;16.22;99805.49;531806;1087;116491;-59
2021/06/15 05:31:25;;;;;;;10.50;5.95;;;;;;;49.16;14.19;99809.64;527414;1087;116247;-58
2021/06/15 05:41:32;;;;;;;9.10;6.50;;;;;;;49.49;13.99;99813.34;530746;1089;117083;-59
2021/06/15 05:51:39;;;;;;;8.38;6.28;;;;;;;51.13;12.55;99815.14;532290;1088;116264;-60
2021/06/15 06:01:45;;;;;;;21.63;6.60;;;;;;;52.50;12.15;99824.23;529225;1087;116541;-60
2021/06/15 06:11:52;;;;;;;7.78;5.88;;;;;;;53.76;10.98;99826.84;531764;1086;117479;-63
2021/06/15 06:21:59;;;;;;;7.37;6.23;;;;;;;55.40;10.06;99818.03;532534;1088;116165;-63
2021/06/15 06:32:06;;;;;;;9.80;7.23;;;;;;;53.93;9.54;99820.58;532423;1089;116919;-62
2021/06/15 06:42:13;;;;;;;9.45;5.03;;;;;;;48.67;10.85;99816.21;526827;1090;116586;-61
2021/06/15 06:52:19;;;;;;;5.87;5.13;;;;;;;45.22;12.42;99808.90;532523;1087;116386;-61
2021/06/15 07:02:27;;;;;;;7.13;5.05;;;;;;;44.35;12.91;99807.66;532559;1088;116006;-62
2021/06/15 07:12:34;;;;;;;11.58;5.38;;;;;;;50.84;10.60;99804.18;532198;1087;117691;-65
2021/06/15 07:22:41;;;;;;;6.00;4.45;;;;;;;51.93;9.88;99808.17;528847;1088;116737;-60
2021/06/15 07:32:50;;;;;;;5.80;5.40;;;;;;;54.22;9.10;99811.55;531742;1087;115334;-60
2021/06/15 07:42:58;;;;;;;5.08;3.88;;;;;;;53.87;8.62;99818.53;532524;1088;116617;-59
2021/06/15 07:53:06;;;;;;;4.78;3.75;;;;;;;47.08;9.57;99801.39;528066;1087;116124;-61
2021/06/15 08:03:13;;;;;;;4.45;3.50;;;;;;;39.75;12.25;99800.11;524918;1088;116212;-62
2021/06/15 08:13:19;;;;;;;9.70;4.53;;;;;;;36.52;15.38;99806.45;532522;1088;116440;-62
2021/06/15 08:23:28;;;;;;;5.40;3.60;;;;;;;35.16;16.77;99801.08;522411;1087;116264;-62
2021/06/15 08:33:35;;;;;;;11.60;4.40;;;;;;;32.37;18.40;99800.05;506016;1088;10001124;-63
2021/06/15 08:43:42;;;;;;;4.30;3.90;;;;;;;31.29;21.06;99797.16;523757;1090;117008;-64
2021/06/15 08:53:53;;;;;;;4.60;4.00;;;;;;;31.75;20.42;99791.25;520338;1088;116914;-64
2021/06/15 09:03:59;;;;;;;4.80;4.17;;;;;;;30.53;21.36;99797.44;532522;1089;116067;-61
2021/06/15 09:14:06;;;;;;;4.43;3.93;;;;;;;31.70;21.77;99793.84;530192;1087;116863;-59
2021/06/15 09:24:15;;;;;;;6.33;3.80;;;;;;;30.34;21.69;99789.30;525259;1087;116936;-59
2021/06/15 09:34:22;;;;;;;5.37;3.73;;;;;;;30.57;22.58;99786.98;532545;1087;116267;-59
2021/06/15 09:44:29;;;;;;;;;;;;;;;30.28;22.28;99765.84;532657;1087;116125;-61
2021/06/15 09:54:43;;;;;;;6.97;4.33;;;;;;;29.49;22.92;99777.95;522778;1089;102322;-64
2021/06/15 10:04:50;;;;;;;7.43;4.83;;;;;;;28.99;23.13;99769.70;528104;1088;115943;-67
2021/06/15 10:14:57;;;;;;;5.60;3.57;;;;;;;28.93;23.72;99761.41;522732;1088;117513;-65
2021/06/15 10:25:05;;;;;;;6.78;3.95;;;;;;;28.44;23.73;99757.42;530219;1090;116726;-68
2021/06/15 10:35:13;;;;;;;5.37;3.10;;;;;;;27.87;24.09;99757.91;532571;1087;116985;-63
2021/06/15 10:45:30;;;;;;;4.40;3.03;;;;;;;27.37;23.67;99741.05;531810;1087;117299;-65
2021/06/15 10:55:45;;;;;;;7.30;3.83;;;;;;;27.07;25.14;99740.58;531440;1088;116133;-61
2021/06/15 11:05:59;;;;;;;7.23;4.10;;;;;;;27.69;25.91;99735.92;530818;1087;115781;-62
2021/06/15 11:16:06;;;;;;;5.70;3.20;;;;;;;27.60;25.42;99718.28;532633;1087;116946;-62
2021/06/15 11:26:17;;;;;;;6.77;3.33;;;;;;;27.58;25.31;99706.88;515105;1088;117262;-61
2021/06/15 11:36:41;;;;;;;5.47;4.77;;;;;;;27.23;26.66;99707.84;523746;1088;116286;-62
2021/06/15 11:47:31;;;;;;;4.20;3.50;;;;;;;27.11;26.83;99691.47;528150;1089;116950;-61
2021/06/15 11:57:38;;;;;;;4.27;3.67;;;;;;;27.03;27.37;99690.84;527741;1087;115292;-60
2021/06/15 12:07:51;;;;;;;6.07;3.90;;;;;;;26.63;27.26;99686.96;514777;1087;116298;-61
2021/06/15 12:17:58;;;;;;;4.37;3.10;;;;;;;26.03;27.24;99676.72;525378;1087;116524;-59
2021/06/15 12:28:13;;;;;;;6.73;4.13;;;;;;;26.30;28.09;99668.81;513493;1087;20001493;-59
2021/06/15 12:38:19;;;;;;;6.93;3.87;;;;;;;26.54;28.45;99656.70;532469;1088;116491;-59
2021/06/15 12:48:26;;;;;;;4.37;3.30;;;;;;;26.78;27.86;99651.80;524159;1087;115744;-59
2021/06/15 12:58:35;;;;;;;7.63;3.68;;;;;;;26.72;28.13;99636.44;532479;1087;116439;-59
2021/06/15 13:08:42;;;;;;;7.80;3.90;;;;;;;26.75;27.94;99627.97;515376;1088;117265;-62
2021/06/15 13:18:59;;;;;;;;;;;;;;;27.01;28.36;99626.38;524789;1090;116281;-61
2021/06/15 13:29:06;;;;;;;5.40;3.80;;;;;;;27.14;27.85;99622.88;530132;1088;102573;-61
2021/06/15 13:39:16;;;;;;;4.95;3.33;;;;;;;27.26;28.16;99618.52;521593;1087;116872;-62
2021/06/15 13:49:23;;;;;;;4.83;3.73;;;;;;;27.77;28.71;99612.68;532541;1089;116852;-61
2021/06/15 13:59:29;;;;;;;4.03;3.63;;;;;;;27.63;28.55;99607.28;532519;1087;116343;-61
2021/06/15 14:09:36;;;;;;;3.93;3.20;;;;;;;27.92;28.34;99602.45;525707;1087;116469;-61
2021/06/15 14:19:43;;;;;;;3.88;2.65;;;;;;;27.97;28.02;99608.03;516487;1088;116441;-61
2021/06/15 14:29:50;;;;;;;5.28;3.15;;;;;;;28.21;27.49;99602.17;530351;1087;116309;-62
2021/06/15 14:39:56;;;;;;;3.98;3.15;;;;;;;27.70;27.88;99601.88;516645;1089;116417;-61
2021/06/15 14:50:03;;;;;;;4.60;4.10;;;;;;;27.36;28.46;99593.02;501741;1088;10001612;-59
2021/06/15 15:00:13;;;;;;;4.78;3.60;;;;;;;27.49;28.42;99586.76;521269;1087;117042;-61
2021/06/15 15:10:20;;;;;;;3.83;3.40;;;;;;;27.49;28.75;99590.30;520839;1087;117039;-59
2021/06/15 15:20:27;;;;;;;4.70;3.10;;;;;;;27.49;28.71;99582.20;519316;1087;115871;-58
2021/06/15 15:30:34;;;;;;;8.37;4.43;;;;;;;27.60;28.77;99567.27;525361;1087;116349;-59
2021/06/15 15:40:40;;;;;;;4.50;3.73;;;;;;;27.30;28.99;99567.72;520194;1088;116645;-59
2021/06/15 15:50:48;;;;;;;5.97;3.13;;;;;;;27.12;29.78;99569.17;513687;1087;116553;-60
2021/06/15 16:00:54;;;;;;;6.08;3.18;;;;;;;27.08;30.17;99567.95;514552;1087;116187;-59
2021/06/15 16:11:01;;;;;;;4.37;3.97;;;;;;;26.83;30.40;99555.03;515319;1087;116111;-62
2021/06/15 16:21:08;;;;;;;6.18;3.25;;;;;;;26.52;31.20;99553.78;513640;1087;116645;-62
2021/06/15 16:31:15;;;;;;;5.15;3.43;;;;;;;25.93;31.82;99558.75;524836;1089;116648;-68
2021/06/15 16:41:25;;;;;;;31.53;5.83;;;;;;;25.42;33.87;99559.88;528731;1087;116836;-64
2021/06/15 16:51:31;;;;;;;12.05;4.40;;;;;;;24.97;35.06;99571.73;515551;1087;116323;-63
2021/06/15 17:01:38;;;;;;;20.67;4.63;;;;;;;24.58;36.12;99562.23;529345;1087;116164;-64
2021/06/15 17:11:45;;;;;;;9.73;4.07;;;;;;;24.43;37.46;99552.39;531425;1089;116882;-64
2021/06/15 17:21:51;;;;;;;23.33;5.23;;;;;;;24.36;38.76;99548.83;530691;1089;116422;-63
2021/06/15 17:31:58;;;;;;;16.00;4.43;;;;;;;24.30;38.94;99557.63;524328;1088;116640;-63
2021/06/15 17:42:06;;;;;;;8.17;4.37;;;;;;;24.18;39.29;99560.80;530455;1088;116603;-64
2021/06/15 17:52:11;;;;;;;;;;;;;;;23.83;39.42;99560.54;531320;1087;116973;-63
2021/06/15 18:02:17;;;;;;;6.70;3.93;;;;;;;23.37;40.30;99554.34;527844;1087;103526;-63
2021/06/15 18:12:24;;;;;;;6.93;4.13;;;;;;;22.94;41.86;99546.00;531465;1090;116706;-65
2021/06/15 18:22:31;;;;;;;16.47;6.40;;;;;;;22.53;43.57;99544.48;532431;1089;116492;-66
2021/06/15 18:32:37;;;;;;;14.27;5.70;;;;;;;22.24;44.56;99538.77;531835;1089;116928;-66
2021/06/15 18:42:44;;;;;;;9.07;6.13;;;;;;;21.97;45.47;99546.27;514571;1090;10001861;-65
2021/06/15 18:52:51;;;;;;;10.20;5.30;;;;;;;21.76;45.72;99548.69;530683;1087;116902;-64
2021/06/15 19:02:58;;;;;;;9.30;6.10;;;;;;;21.59;47.10;99553.22;522839;1087;117210;-64
2021/06/15 19:13:05;;;;;;;10.63;6.40;;;;;;;21.40;47.47;99565.94;522658;1088;116053;-64
2021/06/15 19:23:14;;;;;;;7.83;6.17;;;;;;;21.25;49.20;99574.64;524880;1088;116478;-65
2021/06/15 19:33:24;;;;;;;15.47;6.90;;;;;;;21.15;49.83;99582.00;527613;1089;116708;-65
2021/06/15 19:43:30;;;;;;;12.70;6.80;;;;;;;20.99;51.84;99585.50;522052;1089;116848;-65
2021/06/15 19:53:37;;;;;;;7.20;5.37;;;;;;;20.91;52.61;99602.34;531156;1088;116697;-64
2021/06/15 20:03:44;;;;;;;11.83;5.73;;;;;;;20.80;53.46;99599.97;522272;1087;116753;-65
2021/06/15 20:13:51;;;;;;;14.83;7.30;;;;;;;20.64;53.30;99592.77;531150;1087;116748;-65
2021/06/15 20:23:58;;;;;;;13.48;7.75;;;;;;;20.51;54.23;99598.59;529197;1087;116338;-65
2021/06/15 20:34:24;;;;;;;11.75;6.80;;;;;;;20.37;54.71;99610.72;514546;1088;116922;-64
2021/06/15 20:44:31;;;;;;;13.40;6.63;;;;;;;20.18;55.39;99607.30;514432;1087;116940;-64
2021/06/15 20:54:37;;;;;;;13.30;6.60;;;;;;;20.06;56.12;99625.43;528418;1085;116752;-65
2021/06/15 21:04:45;;;;;;;9.50;6.63;;;;;;;19.99;56.79;99625.23;525027;1087;116336;-61
2021/06/15 21:14:51;;;;;;;9.80;6.30;;;;;;;19.90;57.26;99634.14;527024;1089;116537;-66
2021/06/15 21:24:58;;;;;;;13.67;8.07;;;;;;;19.82;57.36;99637.60;529669;1087;116909;-68
2021/06/15 21:35:06;;;;;;;8.87;6.60;;;;;;;19.74;57.43;99642.88;524501;1086;117257;-66
2021/06/15 21:45:16;;;;;;;14.10;7.45;;;;;;;19.72;57.62;99639.53;531808;1087;116661;-67
2021/06/15 21:55:22;;;;;;;17.73;7.90;;;;;;;19.78;57.48;99638.89;521402;1085;116549;-68
2021/06/15 22:05:30;;;;;;;10.80;6.60;;;;;;;19.91;56.45;99645.62;529059;1087;117491;-66
2021/06/15 22:15:36;;;;;;;9.10;6.57;;;;;;;20.00;55.77;99640.23;515759;1087;116795;-67
2021/06/15 22:25:43;;;;;;;8.25;5.85;;;;;;;19.98;55.77;99639.55;515903;1089;116767;-67
2021/06/15 22:35:50;;;;;;;9.00;6.17;;;;;;;19.91;55.87;99653.61;515466;1087;116717;-67
2021/06/15 22:45:57;;;;;;;7.63;6.63;;;;;;;19.77;56.52;99653.20;527642;1087;116410;-66
2021/06/15 22:56:04;;;;;;;7.47;6.40;;;;;;;19.64;56.72;99655.45;524376;1087;117161;-66
2021/06/15 23:06:11;;;;;;;13.07;9.47;;;;;;;19.57;57.45;99657.91;531789;1087;116478;-66
2021/06/15 23:16:18;;;;;;;9.93;7.40;;;;;;;19.48;57.99;99653.50;530166;1087;118394;-66
2021/06/15 23:26:24;;;;;;;13.80;8.70;;;;;;;19.36;58.79;99658.25;518981;1088;116233;-66
2021/06/15 23:36:31;;;;;;;9.80;7.80;;;;;;;19.22;59.31;99648.98;522142;1088;116555;-66
2021/06/15 23:46:37;;;;;;;11.53;8.53;;;;;;;19.12;60.29;99644.57;529061;1089;116456;-66
2021/06/15 23:56:45;;;;;;;9.37;7.63;;;;;;;19.08;60.61;99635.23;528368;1088;116564;-66
